Time,TemperatureF,DewpointF,PressureIn,WindDirection,WindDirectionDegrees,WindSpeedMPH,WindSpeedGustMPH,Humidity,HourlyPrecipIn,Conditions,Clouds,dailyrainin,SoftwareType,DateUTC
2013-01-15 00:00:00,33.4,20.2,30.29,West,272,0.0,0.0,58,0.00,RA,,0.00,WeatherDisplay:10.37,2013-01-15 05:00:00,
2013-01-15 00:05:00,33.4,20.2,30.29,WNW,284,0.0,0.0,58,0.00,RA,,0.00,WeatherDisplay:10.37,2013-01-15 05:05:00,
2013-01-15 00:10:00,33.4,20.2,30.29,WNW,292,0.0,0.0,58,0.00,CLR,,0.00,WeatherDisplay:10.37,2013-01-15 05:10:00,
2013-01-15 00:20:00,33.3,20.1,30.29,WNW,295,0.0,0.0,58,0.00,CLR,,0.00,WeatherDisplay:10.37,2013-01-15 05:20:00,
2013-01-15 00:30:00,33.3,20.1,30.29,West,262,0.0,4.0,58,0.00,CLR,,0.00,WeatherDisplay:10.37,2013-01-15 05:30:00,
2013-01-15 00:40:00,33.1,19.9,30.29,WNW,284,0.0,0.0,58,0.00,CLR,,0.00,WeatherDisplay:10.37,2013-01-15 05:40:00,
2013-01-15 00:50:00,33.1,19.9,30.29,WNW,297,0.0,3.0,58,0.00,CLR,,0.00,WeatherDisplay:10.37,2013-01-15 05:50:00,
2013-01-15 01:00:00,32.9,19.7,30.28,NW,311,0.0,3.0,58,0.00,CLR,,0.00,WeatherDisplay:10.37,2013-01-15 06:00:00,
2013-01-15 01:05:00,32.9,19.7,30.28,WNW,302,0.0,0.0,58,0.00,CLR,,0.00,WeatherDisplay:10.37,2013-01-15 06:05:00,
2013-01-15 01:10:00,32.9,19.7,30.28,WNW,292,0.0,0.0,58,0.00,CLR,,0.00,WeatherDisplay:10.37,2013-01-15 06:10:00,
2013-01-15 01:20:00,32.7,19.5,30.30,WNW,292,0.0,0.0,58,0.00,CLR,,0.00,WeatherDisplay:10.37,2013-01-15 06:20:00,
2013-01-15 01:30:00,32.5,19.4,30.30,NNW,341,0.0,2.0,58,0.00,CLR,,0.00,WeatherDisplay:10.37,2013-01-15 06:30:00,
2013-01-15 01:40:00,32.4,19.2,30.28,NW,305,0.0,0.0,58,0.00,CLR,,0.00,WeatherDisplay:10.37,2013-01-15 06:40:00,
2013-01-15 01:50:00,32.4,19.2,30.29,WNW,292,0.0,0.0,58,0.00,CLR,,0.00,WeatherDisplay:10.37,2013-01-15 06:50:00,
2013-01-15 02:00:00,32.2,19.0,30.29,WNW,292,0.0,0.0,58,0.00,CLR,,0.00,WeatherDisplay:10.37,2013-01-15 07:00:00,
2013-01-15 02:05:00,32.2,19.4,30.28,West,279,0.0,0.0,59,0.00,CLR,,0.00,WeatherDisplay:10.37,2013-01-15 07:05:00,
2013-01-15 02:10:00,32.2,19.5,30.29,West,270,0.0,0.0,59,0.00,CLR,,0.00,WeatherDisplay:10.37,2013-01-15 07:10:00,
2013-01-15 02:20:00,32.2,19.4,30.26,West,270,0.0,0.0,59,0.00,CLR,,0.00,WeatherDisplay:10.37,2013-01-15 07:20:00,
2013-01-15 02:30:00,32.2,19.8,30.26,West,270,0.0,0.0,60,0.00,CLR,,0.00,WeatherDisplay:10.37,2013-01-15 07:30:00,
2013-01-15 02:40:00,32.2,19.8,30.27,West,270,0.0,0.0,60,0.00,CLR,,0.00,WeatherDisplay:10.37,2013-01-15 07:40:00,
2013-01-15 02:50:00,32.1,20.1,30.28,West,270,0.0,0.0,61,0.00,CLR,,0.00,WeatherDisplay:10.37,2013-01-15 07:50:00,
2013-01-15 03:00:00,32.0,20.1,30.27,West,270,0.0,0.0,61,0.00,CLR,,0.00,WeatherDisplay:10.37,2013-01-15 08:00:00,
2013-01-15 03:05:00,32.0,20.1,30.26,West,270,0.0,0.0,61,0.00,CLR,,0.00,WeatherDisplay:10.37,2013-01-15 08:05:00,
2013-01-15 03:10:00,32.0,20.1,30.27,West,269,0.0,0.0,61,0.00,CLR,,0.00,WeatherDisplay:10.37,2013-01-15 08:10:00,
2013-01-15 03:20:00,32.2,19.8,30.25,WSW,248,0.0,0.0,60,0.00,CLR,,0.00,WeatherDisplay:10.37,2013-01-15 08:20:00,
2013-01-15 03:30:00,32.2,19.8,30.28,WSW,254,0.0,0.0,60,0.00,CLR,,0.00,WeatherDisplay:10.37,2013-01-15 08:30:00,
2013-01-15 03:40:00,32.2,20.2,30.26,West,267,0.0,0.0,61,0.00,CLR,,0.00,WeatherDisplay:10.37,2013-01-15 08:40:00,
2013-01-15 03:50:00,31.9,19.6,30.26,WNW,292,0.0,0.0,60,0.00,CLR,,0.00,WeatherDisplay:10.37,2013-01-15 08:50:00,
2013-01-15 04:00:00,31.9,19.6,30.25,WNW,292,0.0,0.0,60,0.00,CLR,,0.00,WeatherDisplay:10.37,2013-01-15 09:00:00,
2013-01-15 04:05:00,31.8,19.5,30.26,WNW,292,0.0,0.0,60,0.00,CLR,,0.00,WeatherDisplay:10.37,2013-01-15 09:05:00,
2013-01-15 04:10:00,31.8,19.1,30.25,WNW,292,0.0,0.0,59,0.00,CLR,,0.00,WeatherDisplay:10.37,2013-01-15 09:10:00,
2013-01-15 04:20:00,31.7,19.0,30.25,WNW,292,0.0,0.0,59,0.00,CLR,,0.00,WeatherDisplay:10.37,2013-01-15 09:20:00,
2013-01-15 04:30:00,31.5,18.8,30.25,WNW,292,0.0,0.0,59,0.00,CLR,,0.00,WeatherDisplay:10.37,2013-01-15 09:30:00,
2013-01-15 04:40:00,31.1,18.0,30.25,WNW,292,0.0,0.0,58,0.00,CLR,,0.00,WeatherDisplay:10.37,2013-01-15 09:40:00,
2013-01-15 04:50:00,30.9,17.9,30.26,WNW,292,0.0,0.0,58,0.00,CLR,,0.00,WeatherDisplay:10.37,2013-01-15 09:50:00,
2013-01-15 05:00:00,30.5,17.5,30.25,WNW,292,0.0,0.0,58,0.00,CLR,,0.00,WeatherDisplay:10.37,2013-01-15 10:00:00,
2013-01-15 05:05:00,30.1,17.1,30.25,WNW,292,0.0,0.0,58,0.00,CLR,,0.00,WeatherDisplay:10.37,2013-01-15 10:05:00,
2013-01-15 05:10:00,29.8,16.8,30.25,WNW,292,0.0,0.0,58,0.00,CLR,,0.00,WeatherDisplay:10.37,2013-01-15 10:10:00,
2013-01-15 05:20:00,29.1,16.2,30.25,WNW,292,0.0,0.0,58,0.00,CLR,,0.00,WeatherDisplay:10.37,2013-01-15 10:20:00,
2013-01-15 05:30:00,28.6,15.7,30.25,WNW,292,0.0,0.0,58,0.00,CLR,,0.00,WeatherDisplay:10.37,2013-01-15 10:30:00,
2013-01-15 05:40:00,28.0,15.1,30.24,WNW,292,0.0,0.0,58,0.00,CLR,,0.00,WeatherDisplay:10.37,2013-01-15 10:40:00,
2013-01-15 05:50:00,27.5,15.0,30.25,WNW,292,0.0,0.0,59,0.00,CLR,,0.00,WeatherDisplay:10.37,2013-01-15 10:50:00,
2013-01-15 06:00:00,27.1,14.7,30.26,WNW,292,0.0,0.0,59,0.00,CLR,,0.00,WeatherDisplay:10.37,2013-01-15 11:00:00,
2013-01-15 06:05:00,26.9,14.5,30.27,WNW,292,0.0,0.0,59,0.00,CLR,,0.00,WeatherDisplay:10.37,2013-01-15 11:05:00,
2013-01-15 06:10:00,26.8,14.7,30.27,WNW,292,0.0,0.0,60,0.00,CLR,,0.00,WeatherDisplay:10.37,2013-01-15 11:10:00,
2013-01-15 06:20:00,26.7,14.7,30.28,WNW,292,0.0,0.0,60,0.00,CLR,,0.00,WeatherDisplay:10.37,2013-01-15 11:20:00,
2013-01-15 06:30:00,26.2,14.6,30.28,WNW,292,0.0,0.0,61,0.00,CLR,,0.00,WeatherDisplay:10.37,2013-01-15 11:30:00,
2013-01-15 06:40:00,26.1,14.5,30.28,WNW,292,0.0,0.0,61,0.00,CLR,,0.00,WeatherDisplay:10.37,2013-01-15 11:40:00,
2013-01-15 06:50:00,25.9,14.7,30.29,WNW,292,0.0,0.0,62,0.00,CLR,,0.00,WeatherDisplay:10.37,2013-01-15 11:50:00,
2013-01-15 06:59:00,25.7,14.5,30.29,WNW,292,0.0,0.0,62,0.00,CLR,,0.00,WeatherDisplay:10.37,2013-01-15 11:59:00,
2013-01-15 07:04:00,25.7,14.5,30.30,WNW,292,0.0,0.0,62,0.00,CLR,,0.00,WeatherDisplay:10.37,2013-01-15 12:04:00,
2013-01-15 07:10:00,25.5,14.3,30.29,WNW,292,0.0,0.0,62,0.00,CLR,,0.00,WeatherDisplay:10.37,2013-01-15 12:10:00,
2013-01-15 07:20:00,25.3,14.0,30.30,WNW,292,0.0,0.0,62,0.00,CLR,,0.00,WeatherDisplay:10.37,2013-01-15 12:20:00,
2013-01-15 07:30:00,25.2,14.3,30.31,WNW,292,0.0,0.0,63,0.00,CLR,,0.00,WeatherDisplay:10.37,2013-01-15 12:30:00,
2013-01-15 07:40:00,25.1,14.3,30.31,WNW,292,0.0,0.0,63,0.00,CLR,,0.00,WeatherDisplay:10.37,2013-01-15 12:40:00,
2013-01-15 07:50:00,25.1,14.6,30.31,WNW,292,0.0,0.0,64,0.00,CLR,,0.00,WeatherDisplay:10.37,2013-01-15 12:50:00,
2013-01-15 07:59:00,25.1,14.7,30.31,WNW,292,0.0,0.0,64,0.00,CLR,,0.00,WeatherDisplay:10.37,2013-01-15 12:59:00,
2013-01-15 08:04:00,25.2,14.7,30.31,WNW,292,0.0,0.0,64,0.00,CLR,,0.00,WeatherDisplay:10.37,2013-01-15 13:04:00,
2013-01-15 08:10:00,25.3,15.2,30.31,WNW,292,0.0,0.0,65,0.00,CLR,,0.00,WeatherDisplay:10.37,2013-01-15 13:10:00,
2013-01-15 08:20:00,25.5,15.4,30.32,WNW,292,0.0,0.0,65,0.00,CLR,,0.00,WeatherDisplay:10.37,2013-01-15 13:20:00,
2013-01-15 08:30:00,26.1,16.2,30.32,WNW,292,0.0,0.0,66,0.00,CLR,,0.00,WeatherDisplay:10.37,2013-01-15 13:30:00,
2013-01-15 08:40:00,26.8,16.9,30.32,WNW,292,0.0,0.0,66,0.00,CLR,,0.00,WeatherDisplay:10.37,2013-01-15 13:40:00,
2013-01-15 08:50:00,27.5,17.7,30.32,NW,324,0.0,0.0,66,0.00,CLR,,0.00,WeatherDisplay:10.37,2013-01-15 13:50:00,
2013-01-15 09:00:00,28.7,18.8,30.32,NNW,338,0.0,0.0,66,0.00,CLR,,0.00,WeatherDisplay:10.37,2013-01-15 14:00:00,
2013-01-15 09:10:00,29.5,19.2,30.32,NNW,342,0.0,0.0,65,0.00,CLR,,0.00,WeatherDisplay:10.37,2013-01-15 14:10:00,
2013-01-15 09:20:00,30.4,19.3,30.33,NNW,343,1.0,4.0,63,0.00,CLR,,0.00,WeatherDisplay:10.37,2013-01-15 14:20:00,
2013-01-15 09:30:00,31.3,19.4,30.33,NNW,337,0.0,0.0,61,0.00,CLR,,0.00,WeatherDisplay:10.37,2013-01-15 14:30:00,
2013-01-15 09:40:00,31.9,19.1,30.33,North,359,0.0,0.0,59,0.00,CLR,,0.00,WeatherDisplay:10.37,2013-01-15 14:40:00,
2013-01-15 09:50:00,32.7,19.5,30.34,North,6,0.0,0.0,58,0.00,CLR,,0.00,WeatherDisplay:10.37,2013-01-15 14:50:00,
2013-01-15 09:59:00,33.4,19.4,30.34,NW,306,0.0,5.0,56,0.00,CLR,,0.00,WeatherDisplay:10.37,2013-01-15 14:59:00,
2013-01-15 10:04:00,33.6,19.1,30.34,NNW,343,0.0,0.0,55,0.00,CLR,,0.00,WeatherDisplay:10.37,2013-01-15 15:04:00,
2013-01-15 10:10:00,34.2,19.7,30.34,North,359,0.0,0.0,55,0.00,CLR,,0.00,WeatherDisplay:10.37,2013-01-15 15:10:00,
2013-01-15 10:20:00,35.1,19.2,30.34,NW,311,0.0,0.0,52,0.00,CLR,,0.00,WeatherDisplay:10.37,2013-01-15 15:20:00,
2013-01-15 10:30:00,35.6,19.2,30.34,North,350,0.0,0.0,51,0.00,CLR,,0.00,WeatherDisplay:10.37,2013-01-15 15:30:00,
2013-01-15 10:40:00,35.5,17.8,30.33,NW,325,0.0,1.0,48,0.00,CLR,,0.00,WeatherDisplay:10.37,2013-01-15 15:40:00,
2013-01-15 10:50:00,35.5,18.2,30.32,WSW,256,0.0,0.0,49,0.00,CLR,,0.00,WeatherDisplay:10.37,2013-01-15 15:50:00,
2013-01-15 10:59:00,35.6,17.3,30.31,NNW,332,0.0,0.0,47,0.00,CLR,,0.00,WeatherDisplay:10.37,2013-01-15 15:59:00,
2013-01-15 11:04:00,35.4,17.2,30.31,WNW,301,0.0,0.0,47,0.00,CLR,,0.00,WeatherDisplay:10.37,2013-01-15 16:04:00,
2013-01-15 11:10:00,35.4,16.1,30.31,NW,306,0.0,0.0,45,0.00,CLR,,0.00,WeatherDisplay:10.37,2013-01-15 16:10:00,
2013-01-15 11:20:00,35.7,16.9,30.31,WNW,299,0.0,0.0,46,0.00,CLR,,0.00,WeatherDisplay:10.37,2013-01-15 16:20:00,
2013-01-15 11:30:00,36.1,16.7,30.30,NW,322,0.0,0.0,45,0.00,CLR,,0.00,WeatherDisplay:10.37,2013-01-15 16:30:00,
2013-01-15 11:40:00,36.5,17.1,30.30,NNW,330,0.0,5.0,45,0.00,CLR,,0.00,WeatherDisplay:10.37,2013-01-15 16:40:00,
2013-01-15 11:50:00,36.7,16.3,30.30,NNE,14,0.0,0.0,43,0.00,CLR,,0.00,WeatherDisplay:10.37,2013-01-15 16:50:00,
2013-01-15 12:00:00,37.0,16.0,30.29,NE,38,0.0,3.0,42,0.00,CLR,,0.00,WeatherDisplay:10.37,2013-01-15 17:00:00,
2013-01-15 12:10:00,37.3,16.8,30.29,NNW,342,0.0,0.0,43,0.00,CLR,,0.00,WeatherDisplay:10.37,2013-01-15 17:10:00,
2013-01-15 12:20:00,37.2,15.6,30.29,NW,325,0.0,0.0,41,0.00,CLR,,0.00,WeatherDisplay:10.37,2013-01-15 17:20:00,
2013-01-15 12:30:00,37.0,16.0,30.29,NE,52,0.0,0.0,42,0.00,CLR,,0.00,WeatherDisplay:10.37,2013-01-15 17:30:00,
2013-01-15 12:40:00,37.5,16.4,30.28,NNW,327,0.0,0.0,42,0.00,CLR,,0.00,WeatherDisplay:10.37,2013-01-15 17:40:00,
2013-01-15 12:50:00,37.1,15.0,30.28,NW,325,0.0,1.0,40,0.00,CLR,,0.00,WeatherDisplay:10.37,2013-01-15 17:50:00,
2013-01-15 12:59:00,37.2,15.1,30.29,WNW,283,0.0,3.0,40,0.00,CLR,,0.00,WeatherDisplay:10.37,2013-01-15 17:59:00,
2013-01-15 13:04:00,37.2,15.6,30.28,NW,306,0.0,0.0,41,0.00,CLR,,0.00,WeatherDisplay:10.37,2013-01-15 18:04:00,
2013-01-15 13:10:00,37.4,15.8,30.28,NW,307,0.0,0.0,41,0.00,CLR,,0.00,WeatherDisplay:10.37,2013-01-15 18:10:00,
2013-01-15 13:20:00,37.6,16.0,30.28,West,278,0.0,1.0,41,0.00,CLR,,0.00,WeatherDisplay:10.37,2013-01-15 18:20:00,
2013-01-15 13:30:00,37.3,15.1,30.28,NW,314,0.0,0.0,40,0.00,CLR,,0.00,WeatherDisplay:10.37,2013-01-15 18:30:00,
2013-01-15 13:40:00,37.2,15.1,30.28,NW,312,0.0,2.0,40,0.00,CLR,,0.00,WeatherDisplay:10.37,2013-01-15 18:40:00,
2013-01-15 13:50:00,37.1,15.0,30.28,NW,321,0.0,0.0,40,0.00,CLR,,0.00,WeatherDisplay:10.37,2013-01-15 18:50:00,
2013-01-15 13:59:00,37.1,14.4,30.28,West,274,0.0,0.0,39,0.00,CLR,,0.00,WeatherDisplay:10.37,2013-01-15 18:59:00,
2013-01-15 14:04:00,37.6,15.4,30.28,WSW,243,1.0,5.0,40,0.00,CLR,,0.00,WeatherDisplay:10.37,2013-01-15 19:04:00,
2013-01-15 14:10:00,37.8,15.6,30.28,WSW,254,0.0,2.0,40,0.00,CLR,,0.00,WeatherDisplay:10.37,2013-01-15 19:10:00,
2013-01-15 14:20:00,38.1,15.9,30.28,West,269,0.0,0.0,40,0.00,CLR,,0.00,WeatherDisplay:10.37,2013-01-15 19:20:00,
2013-01-15 14:30:00,38.3,15.5,30.28,West,270,0.0,0.0,39,0.00,CLR,,0.00,WeatherDisplay:10.37,2013-01-15 19:30:00,
2013-01-15 14:40:00,37.9,13.9,30.27,NNW,331,0.0,1.0,37,0.00,CLR,,0.00,WeatherDisplay:10.37,2013-01-15 19:40:00,
2013-01-15 14:50:00,37.1,13.2,30.27,NW,315,0.0,0.0,37,0.00,CLR,,0.00,WeatherDisplay:10.37,2013-01-15 19:50:00,
2013-01-15 14:59:00,36.5,13.3,30.27,NW,315,0.0,0.0,38,0.00,CLR,,0.00,WeatherDisplay:10.37,2013-01-15 19:59:00,
2013-01-15 15:04:00,36.5,13.9,30.27,NW,306,0.0,3.0,39,0.00,CLR,,0.00,WeatherDisplay:10.37,2013-01-15 20:04:00,
2013-01-15 15:10:00,36.3,14.3,30.26,WNW,288,0.0,0.0,40,0.00,CLR,,0.00,WeatherDisplay:10.37,2013-01-15 20:10:00,
2013-01-15 15:20:00,36.0,14.0,30.26,ENE,69,0.0,0.0,40,0.00,CLR,,0.00,WeatherDisplay:10.37,2013-01-15 20:20:00,
2013-01-15 15:30:00,35.8,14.3,30.26,East,90,0.0,0.0,41,0.00,CLR,,0.00,WeatherDisplay:10.37,2013-01-15 20:30:00,
2013-01-15 15:40:00,35.4,14.0,30.26,ENE,77,0.0,0.0,41,0.00,CLR,,0.00,WeatherDisplay:10.37,2013-01-15 20:40:00,
2013-01-15 15:50:00,35.2,13.9,30.26,NNW,345,0.0,0.0,41,0.00,CLR,,0.00,WeatherDisplay:10.37,2013-01-15 20:50:00,
2013-01-15 15:59:00,35.1,14.2,30.27,NNW,338,0.0,0.0,42,0.00,CLR,,0.00,WeatherDisplay:10.37,2013-01-15 20:59:00,
2013-01-15 16:04:00,34.7,13.9,30.27,NNW,338,0.0,0.0,42,0.00,CLR,,0.00,WeatherDisplay:10.37,2013-01-15 21:04:00,
2013-01-15 16:10:00,34.7,13.9,30.27,NNW,338,0.0,0.0,42,0.00,CLR,,0.00,WeatherDisplay:10.37,2013-01-15 21:10:00,
2013-01-15 16:20:00,34.4,14.2,30.27,NNW,337,0.0,0.0,43,0.00,CLR,,0.00,WeatherDisplay:10.37,2013-01-15 21:20:00,
2013-01-15 16:30:00,34.2,14.0,30.27,NW,318,0.0,0.0,43,0.00,CLR,,0.00,WeatherDisplay:10.37,2013-01-15 21:30:00,
2013-01-15 16:40:00,33.7,13.6,30.28,NW,315,0.0,0.0,43,0.00,CLR,,0.00,WeatherDisplay:10.37,2013-01-15 21:40:00,
2013-01-15 16:50:00,33.4,13.8,30.28,NW,315,0.0,0.0,44,0.00,CLR,,0.00,WeatherDisplay:10.37,2013-01-15 21:50:00,
2013-01-15 16:59:00,33.1,13.5,30.28,NW,315,0.0,0.0,44,0.00,CLR,,0.00,WeatherDisplay:10.37,2013-01-15 21:59:00,
2013-01-15 17:04:00,32.9,13.3,30.28,NW,315,0.0,0.0,44,0.00,CLR,,0.00,WeatherDisplay:10.37,2013-01-15 22:04:00,
2013-01-15 17:10:00,32.9,13.9,30.28,NW,315,0.0,0.0,45,0.00,CLR,,0.00,WeatherDisplay:10.37,2013-01-15 22:10:00,
2013-01-15 17:20:00,32.7,13.7,30.28,NW,315,0.0,0.0,45,0.00,CLR,,0.00,WeatherDisplay:10.37,2013-01-15 22:20:00,
2013-01-15 17:30:00,32.4,13.4,30.28,NW,315,0.0,0.0,45,0.00,CLR,,0.00,WeatherDisplay:10.37,2013-01-15 22:30:00,
2013-01-15 17:40:00,32.2,13.7,30.28,NW,315,0.0,0.0,46,0.00,CLR,,0.00,WeatherDisplay:10.37,2013-01-15 22:40:00,
2013-01-15 17:50:00,31.7,13.7,30.28,NW,315,0.0,0.0,47,0.00,CLR,,0.00,WeatherDisplay:10.37,2013-01-15 22:50:00,
2013-01-15 17:59:00,31.5,14.0,30.29,NW,315,0.0,0.0,48,0.00,CLR,,0.00,WeatherDisplay:10.37,2013-01-15 22:59:00,
2013-01-15 18:04:00,30.9,13.5,30.29,NW,315,0.0,0.0,48,0.00,CLR,,0.00,WeatherDisplay:10.37,2013-01-15 23:04:00,
2013-01-15 18:10:00,30.7,13.3,30.29,NW,315,0.0,0.0,48,0.00,CLR,,0.00,WeatherDisplay:10.37,2013-01-15 23:10:00,
2013-01-15 18:20:00,30.2,13.3,30.29,NW,315,0.0,0.0,49,0.00,CLR,,0.00,WeatherDisplay:10.37,2013-01-15 23:20:00,
2013-01-15 18:30:00,29.8,13.4,30.29,NW,315,0.0,0.0,50,0.00,CLR,,0.00,WeatherDisplay:10.37,2013-01-15 23:30:00,
2013-01-15 18:40:00,29.7,13.7,30.29,NW,315,0.0,0.0,51,0.00,CLR,,0.00,WeatherDisplay:10.37,2013-01-15 23:40:00,
2013-01-15 18:50:00,29.5,13.6,30.29,NW,315,0.0,0.0,51,0.00,CLR,,0.00,WeatherDisplay:10.37,2013-01-15 23:50:00,
2013-01-15 18:59:00,29.3,13.4,30.29,NW,315,0.0,0.0,51,0.00,CLR,,0.00,WeatherDisplay:10.37,2013-01-15 23:59:00,
2013-01-15 19:04:00,29.1,13.6,30.29,NW,315,0.0,0.0,52,0.00,CLR,,0.00,WeatherDisplay:10.37,2013-01-16 00:04:00,
2013-01-15 19:10:00,28.9,13.5,30.29,NW,315,0.0,0.0,52,0.00,CLR,,0.00,WeatherDisplay:10.37,2013-01-16 00:10:00,
2013-01-15 19:20:00,28.9,13.5,30.28,NW,315,0.0,0.0,52,0.00,CLR,,0.00,WeatherDisplay:10.37,2013-01-16 00:20:00,
2013-01-15 19:30:00,28.6,13.2,30.27,NW,315,0.0,0.0,52,0.00,CLR,,0.00,WeatherDisplay:10.37,2013-01-16 00:30:00,
2013-01-15 19:40:00,28.6,13.1,30.28,NW,315,0.0,0.0,52,0.00,CLR,,0.00,WeatherDisplay:10.37,2013-01-16 00:40:00,
2013-01-15 19:50:00,28.3,13.4,30.28,NW,315,0.0,0.0,53,0.00,CLR,,0.00,WeatherDisplay:10.37,2013-01-16 00:50:00,
2013-01-15 19:59:00,28.2,13.2,30.27,NW,315,0.0,0.0,53,0.00,CLR,,0.00,WeatherDisplay:10.37,2013-01-16 00:59:00,
2013-01-15 20:04:00,28.2,13.7,30.28,NW,315,0.0,0.0,54,0.00,CLR,,0.00,WeatherDisplay:10.37,2013-01-16 01:04:00,
2013-01-15 20:10:00,28.2,13.7,30.28,NW,315,0.0,0.0,54,0.00,CLR,,0.00,WeatherDisplay:10.37,2013-01-16 01:10:00,
2013-01-15 20:20:00,28.2,14.1,30.28,NW,315,0.0,0.0,55,0.00,CLR,,0.00,WeatherDisplay:10.37,2013-01-16 01:20:00,
2013-01-15 20:30:00,28.6,14.4,30.27,NW,315,0.0,0.0,55,0.00,CLR,,0.00,WeatherDisplay:10.37,2013-01-16 01:30:00,
2013-01-15 20:40:00,28.6,14.9,30.27,NW,315,0.0,0.0,56,0.00,CLR,,0.00,WeatherDisplay:10.37,2013-01-16 01:40:00,
2013-01-15 20:50:00,28.6,14.9,30.27,NW,315,0.0,0.0,56,0.00,CLR,,0.00,WeatherDisplay:10.37,2013-01-16 01:50:00,
2013-01-15 20:59:00,28.6,14.9,30.27,NW,315,0.0,0.0,56,0.00,CLR,,0.00,WeatherDisplay:10.37,2013-01-16 01:59:00,
2013-01-15 21:05:00,28.6,14.9,30.27,NW,315,0.0,0.0,56,0.00,CLR,,0.00,WeatherDisplay:10.37,2013-01-16 02:05:00,
2013-01-15 21:10:00,28.6,14.9,30.27,NW,315,0.0,0.0,56,0.00,CLR,,0.00,WeatherDisplay:10.37,2013-01-16 02:10:00,
2013-01-15 21:20:00,28.6,14.9,30.27,NW,315,0.0,0.0,56,0.00,CLR,,0.00,WeatherDisplay:10.37,2013-01-16 02:20:00,
2013-01-15 21:30:00,28.6,14.9,30.26,NW,315,0.0,0.0,56,0.00,CLR,,0.00,WeatherDisplay:10.37,2013-01-16 02:30:00,
2013-01-15 21:40:00,28.5,14.8,30.26,NW,315,0.0,0.0,56,0.00,CLR,,0.00,WeatherDisplay:10.37,2013-01-16 02:40:00,
2013-01-15 21:50:00,28.5,14.8,30.26,NW,315,0.0,0.0,56,0.00,CLR,,0.00,WeatherDisplay:10.37,2013-01-16 02:50:00,
2013-01-15 21:59:00,28.5,14.8,30.25,NW,315,0.0,0.0,56,0.00,CLR,,0.00,WeatherDisplay:10.37,2013-01-16 02:59:00,
2013-01-15 22:04:00,28.4,14.7,30.25,NW,315,0.0,0.0,56,0.00,CLR,,0.00,WeatherDisplay:10.37,2013-01-16 03:04:00,
2013-01-15 22:10:00,28.4,14.7,30.25,NW,315,0.0,0.0,56,0.00,CLR,,0.00,WeatherDisplay:10.37,2013-01-16 03:10:00,
2013-01-15 22:20:00,28.1,14.4,30.25,NW,315,0.0,0.0,56,0.00,CLR,,0.00,WeatherDisplay:10.37,2013-01-16 03:20:00,
2013-01-15 22:30:00,28.0,14.3,30.25,NW,315,0.0,0.0,56,0.00,CLR,,0.00,WeatherDisplay:10.37,2013-01-16 03:30:00,
2013-01-15 22:40:00,28.0,14.8,30.25,NW,315,0.0,0.0,57,0.00,CLR,,0.00,WeatherDisplay:10.37,2013-01-16 03:40:00,
2013-01-15 22:50:00,28.0,14.8,30.26,NW,315,0.0,0.0,57,0.00,CLR,,0.00,WeatherDisplay:10.37,2013-01-16 03:50:00,
2013-01-15 22:59:00,27.9,14.6,30.26,NW,315,0.0,0.0,57,0.00,CLR,,0.00,WeatherDisplay:10.37,2013-01-16 03:59:00,
2013-01-15 23:04:00,27.9,15.0,30.26,NW,315,0.0,0.0,58,0.00,CLR,,0.00,WeatherDisplay:10.37,2013-01-16 04:04:00,
2013-01-15 23:10:00,27.8,14.9,30.26,NW,315,0.0,0.0,58,0.00,CLR,,0.00,WeatherDisplay:10.37,2013-01-16 04:10:00,
2013-01-15 23:20:00,27.9,15.0,30.25,NW,315,0.0,0.0,58,0.00,CLR,,0.00,WeatherDisplay:10.37,2013-01-16 04:20:00,
2013-01-15 23:30:00,28.0,15.5,30.25,NW,315,0.0,0.0,59,0.00,CLR,,0.00,WeatherDisplay:10.37,2013-01-16 04:30:00,
2013-01-15 23:40:00,28.0,15.5,30.24,NW,315,0.0,0.0,59,0.00,CLR,,0.00,WeatherDisplay:10.37,2013-01-16 04:40:00,
2013-01-15 23:50:00,28.0,15.5,30.24,NW,315,0.0,0.0,59,0.00,CLR,,0.00,WeatherDisplay:10.37,2013-01-16 04:50:00,